sensor_id;sensor_type;location;lat;lon;timestamp;temperature;humidity
76956;DHT22;65894;53.206;-6.108;2023-03-01T00:01:27;20.63;53.96
76956;DHT22;65894;53.206;-6.108;2023-03-01T00:03:54;20.59;53.92
76956;DHT22;65894;53.206;-6.108;2023-03-01T00:06:20;20.61;54.22
76956;DHT22;65894;53.206;-6.108;2023-03-01T00:08:47;20.60;53.87
76956;DHT22;65894;53.206;-6.108;2023-03-01T00:11:19;20.60;53.85
76956;DHT22;65894;53.206;-6.108;2023-03-01T00:13:46;20.63;53.84
76956;DHT22;65894;53.206;-6.108;2023-03-01T00:16:15;20.64;54.12
76956;DHT22;65894;53.206;-6.108;2023-03-01T00:18:41;20.61;53.61
76956;DHT22;65894;53.206;-6.108;2023-03-01T00:21:06;20.61;53.72
76956;DHT22;65894;53.206;-6.108;2023-03-01T00:23:34;20.63;53.93
76956;DHT22;65894;53.206;-6.108;2023-03-01T00:26:00;20.59;53.62
76956;DHT22;65894;53.206;-6.108;2023-03-01T00:28:26;20.61;53.81
76956;DHT22;65894;53.206;-6.108;2023-03-01T00:30:51;20.60;53.70
76956;DHT22;65894;53.206;-6.108;2023-03-01T00:33:17;20.60;53.72
76956;DHT22;65894;53.206;-6.108;2023-03-01T00:35:43;20.61;53.72
76956;DHT22;65894;53.206;-6.108;2023-03-01T00:38:08;20.63;53.72
76956;DHT22;65894;53.206;-6.108;2023-03-01T00:40:35;20.60;53.87
76956;DHT22;65894;53.206;-6.108;2023-03-01T00:43:01;20.66;53.64
76956;DHT22;65894;53.206;-6.108;2023-03-01T00:45:27;20.61;54.19
76956;DHT22;65894;53.206;-6.108;2023-03-01T00:47:53;20.63;53.74
76956;DHT22;65894;53.206;-6.108;2023-03-01T00:50:19;20.64;54.17
76956;DHT22;65894;53.206;-6.108;2023-03-01T00:52:45;20.66;53.73
76956;DHT22;65894;53.206;-6.108;2023-03-01T00:55:11;20.63;53.68
76956;DHT22;65894;53.206;-6.108;2023-03-01T00:57:38;20.64;53.72
76956;DHT22;65894;53.206;-6.108;2023-03-01T01:00:07;20.66;53.59
76956;DHT22;65894;53.206;-6.108;2023-03-01T01:02:35;20.63;53.61
76956;DHT22;65894;53.206;-6.108;2023-03-01T01:05:00;20.66;53.49
76956;DHT22;65894;53.206;-6.108;2023-03-01T01:07:26;20.66;53.79
76956;DHT22;65894;53.206;-6.108;2023-03-01T01:09:52;20.68;53.65
76956;DHT22;65894;53.206;-6.108;2023-03-01T01:12:17;20.68;53.67
76956;DHT22;65894;53.206;-6.108;2023-03-01T01:14:43;20.67;53.51
76956;DHT22;65894;53.206;-6.108;2023-03-01T01:17:08;20.66;53.31
76956;DHT22;65894;53.206;-6.108;2023-03-01T01:19:34;20.64;53.36
76956;DHT22;65894;53.206;-6.108;2023-03-01T01:22:00;20.64;53.32
76956;DHT22;65894;53.206;-6.108;2023-03-01T01:24:25;20.63;53.25
76956;DHT22;65894;53.206;-6.108;2023-03-01T01:26:51;20.64;53.45
76956;DHT22;65894;53.206;-6.108;2023-03-01T01:29:16;20.63;53.76
76956;DHT22;65894;53.206;-6.108;2023-03-01T01:31:42;20.66;53.68
76956;DHT22;65894;53.206;-6.108;2023-03-01T01:34:17;20.66;53.59
76956;DHT22;65894;53.206;-6.108;2023-03-01T01:36:43;20.67;53.39
76956;DHT22;65894;53.206;-6.108;2023-03-01T01:39:08;20.67;53.43
76956;DHT22;65894;53.206;-6.108;2023-03-01T01:41:38;20.68;53.09
76956;DHT22;65894;53.206;-6.108;2023-03-01T01:44:23;20.67;53.15
76956;DHT22;65894;53.206;-6.108;2023-03-01T01:46:53;20.66;53.20
76956;DHT22;65894;53.206;-6.108;2023-03-01T01:51:46;20.70;53.43
76956;DHT22;65894;53.206;-6.108;2023-03-01T01:54:24;20.67;53.06
76956;DHT22;65894;53.206;-6.108;2023-03-01T01:57:03;20.70;53.25
76956;DHT22;65894;53.206;-6.108;2023-03-01T01:59:32;20.67;53.90
76956;DHT22;65894;53.206;-6.108;2023-03-01T02:02:00;20.73;53.82
76956;DHT22;65894;53.206;-6.108;2023-03-01T02:04:28;20.68;53.65
76956;DHT22;65894;53.206;-6.108;2023-03-01T02:07:03;20.68;53.43
76956;DHT22;65894;53.206;-6.108;2023-03-01T02:09:30;20.68;53.41
76956;DHT22;65894;53.206;-6.108;2023-03-01T02:11:58;20.68;53.45
76956;DHT22;65894;53.206;-6.108;2023-03-01T02:14:24;20.71;53.17
76956;DHT22;65894;53.206;-6.108;2023-03-01T02:16:49;20.70;53.23
76956;DHT22;65894;53.206;-6.108;2023-03-01T02:19:34;20.68;53.43
76956;DHT22;65894;53.206;-6.108;2023-03-01T02:22:33;20.67;53.25
76956;DHT22;65894;53.206;-6.108;2023-03-01T02:28:06;20.71;53.03
76956;DHT22;65894;53.206;-6.108;2023-03-01T02:30:33;20.71;53.05
76956;DHT22;65894;53.206;-6.108;2023-03-01T02:33:00;20.70;53.58
76956;DHT22;65894;53.206;-6.108;2023-03-01T02:35:32;20.71;53.13
76956;DHT22;65894;53.206;-6.108;2023-03-01T02:38:01;20.70;53.26
76956;DHT22;65894;53.206;-6.108;2023-03-01T02:40:33;20.71;53.70
76956;DHT22;65894;53.206;-6.108;2023-03-01T02:42:58;20.73;53.61
76956;DHT22;65894;53.206;-6.108;2023-03-01T02:45:26;20.73;53.43
76956;DHT22;65894;53.206;-6.108;2023-03-01T02:47:56;20.74;53.42
76956;DHT22;65894;53.206;-6.108;2023-03-01T02:53:28;20.73;53.45
76956;DHT22;65894;53.206;-6.108;2023-03-01T02:55:57;20.73;53.48
76956;DHT22;65894;53.206;-6.108;2023-03-01T02:58:24;20.74;53.19
76956;DHT22;65894;53.206;-6.108;2023-03-01T03:00:51;20.71;53.47
76956;DHT22;65894;53.206;-6.108;2023-03-01T03:03:17;20.70;53.35
76956;DHT22;65894;53.206;-6.108;2023-03-01T03:05:44;20.71;53.04
76956;DHT22;65894;53.206;-6.108;2023-03-01T03:08:10;20.71;53.50
76956;DHT22;65894;53.206;-6.108;2023-03-01T03:10:39;20.74;53.41
76956;DHT22;65894;53.206;-6.108;2023-03-01T03:13:07;20.73;53.08
76956;DHT22;65894;53.206;-6.108;2023-03-01T03:15:34;20.76;53.55
76956;DHT22;65894;53.206;-6.108;2023-03-01T03:18:07;20.74;53.61
76956;DHT22;65894;53.206;-6.108;2023-03-01T03:20:33;20.74;53.59
76956;DHT22;65894;53.206;-6.108;2023-03-01T03:23:00;20.77;53.62
76956;DHT22;65894;53.206;-6.108;2023-03-01T03:25:27;20.78;53.52
76956;DHT22;65894;53.206;-6.108;2023-03-01T03:27:53;20.73;53.18
76956;DHT22;65894;53.206;-6.108;2023-03-01T03:30:30;20.73;53.38
76956;DHT22;65894;53.206;-6.108;2023-03-01T03:32:57;20.74;53.54
76956;DHT22;65894;53.206;-6.108;2023-03-01T03:35:27;20.76;52.93
76956;DHT22;65894;53.206;-6.108;2023-03-01T03:37:56;20.73;53.00
76956;DHT22;65894;53.206;-6.108;2023-03-01T03:40:34;20.76;53.31
76956;DHT22;65894;53.206;-6.108;2023-03-01T03:42:59;20.76;53.03
76956;DHT22;65894;53.206;-6.108;2023-03-01T03:45:25;20.76;53.09
76956;DHT22;65894;53.206;-6.108;2023-03-01T03:47:51;20.76;53.07
76956;DHT22;65894;53.206;-6.108;2023-03-01T03:50:17;20.77;53.03
76956;DHT22;65894;53.206;-6.108;2023-03-01T03:52:43;20.74;53.02
76956;DHT22;65894;53.206;-6.108;2023-03-01T03:55:11;20.73;53.04
76956;DHT22;65894;53.206;-6.108;2023-03-01T03:57:38;20.76;53.11
76956;DHT22;65894;53.206;-6.108;2023-03-01T04:00:05;20.76;53.25
76956;DHT22;65894;53.206;-6.108;2023-03-01T04:02:41;20.76;53.36
76956;DHT22;65894;53.206;-6.108;2023-03-01T04:05:07;20.76;53.14
76956;DHT22;65894;53.206;-6.108;2023-03-01T04:07:34;20.76;53.30
76956;DHT22;65894;53.206;-6.108;2023-03-01T04:10:00;20.74;53.40
76956;DHT22;65894;53.206;-6.108;2023-03-01T04:12:25;20.76;52.90
76956;DHT22;65894;53.206;-6.108;2023-03-01T04:14:50;20.77;52.76
76956;DHT22;65894;53.206;-6.108;2023-03-01T04:17:16;20.77;52.94
76956;DHT22;65894;53.206;-6.108;2023-03-01T04:19:41;20.77;53.28
76956;DHT22;65894;53.206;-6.108;2023-03-01T04:22:09;20.77;53.17
76956;DHT22;65894;53.206;-6.108;2023-03-01T04:24:36;20.76;53.35
76956;DHT22;65894;53.206;-6.108;2023-03-01T04:27:02;20.76;53.20
76956;DHT22;65894;53.206;-6.108;2023-03-01T04:29:27;20.77;53.39
76956;DHT22;65894;53.206;-6.108;2023-03-01T04:31:53;20.78;53.01
76956;DHT22;65894;53.206;-6.108;2023-03-01T04:34:19;20.77;53.20
76956;DHT22;65894;53.206;-6.108;2023-03-01T04:36:44;20.77;53.01
76956;DHT22;65894;53.206;-6.108;2023-03-01T04:39:10;20.76;53.27
76956;DHT22;65894;53.206;-6.108;2023-03-01T04:41:38;20.78;53.12
76956;DHT22;65894;53.206;-6.108;2023-03-01T04:44:05;20.78;53.41
76956;DHT22;65894;53.206;-6.108;2023-03-01T04:46:30;20.81;53.35
76956;DHT22;65894;53.206;-6.108;2023-03-01T04:48:56;20.83;53.32
76956;DHT22;65894;53.206;-6.108;2023-03-01T04:51:21;20.78;52.96
76956;DHT22;65894;53.206;-6.108;2023-03-01T04:53:47;20.80;53.02
76956;DHT22;65894;53.206;-6.108;2023-03-01T04:56:13;20.78;52.91
76956;DHT22;65894;53.206;-6.108;2023-03-01T04:58:39;20.83;52.89
76956;DHT22;65894;53.206;-6.108;2023-03-01T05:01:13;20.78;52.62
76956;DHT22;65894;53.206;-6.108;2023-03-01T05:03:46;20.80;53.34
76956;DHT22;65894;53.206;-6.108;2023-03-01T05:06:13;20.81;53.15
76956;DHT22;65894;53.206;-6.108;2023-03-01T05:08:40;20.81;53.14
76956;DHT22;65894;53.206;-6.108;2023-03-01T05:11:06;20.80;52.84
76956;DHT22;65894;53.206;-6.108;2023-03-01T05:13:35;20.81;53.23
76956;DHT22;65894;53.206;-6.108;2023-03-01T05:16:01;20.81;53.27
76956;DHT22;65894;53.206;-6.108;2023-03-01T05:18:32;20.81;52.94
76956;DHT22;65894;53.206;-6.108;2023-03-01T05:21:06;20.81;53.23
76956;DHT22;65894;53.206;-6.108;2023-03-01T05:23:33;20.81;53.29
76956;DHT22;65894;53.206;-6.108;2023-03-01T05:26:00;20.85;53.23
76956;DHT22;65894;53.206;-6.108;2023-03-01T05:28:26;20.84;53.26
76956;DHT22;65894;53.206;-6.108;2023-03-01T05:30:52;20.84;53.04
76956;DHT22;65894;53.206;-6.108;2023-03-01T05:33:17;20.85;52.95
76956;DHT22;65894;53.206;-6.108;2023-03-01T05:35:44;20.84;53.01
76956;DHT22;65894;53.206;-6.108;2023-03-01T05:38:11;20.83;53.17
76956;DHT22;65894;53.206;-6.108;2023-03-01T05:40:41;20.83;52.86
76956;DHT22;65894;53.206;-6.108;2023-03-01T05:43:06;20.84;52.90
76956;DHT22;65894;53.206;-6.108;2023-03-01T05:45:32;20.84;53.12
76956;DHT22;65894;53.206;-6.108;2023-03-01T05:47:59;20.83;52.93
76956;DHT22;65894;53.206;-6.108;2023-03-01T05:50:27;20.84;53.25
76956;DHT22;65894;53.206;-6.108;2023-03-01T05:53:17;20.81;52.97
76956;DHT22;65894;53.206;-6.108;2023-03-01T05:55:44;20.83;53.29
76956;DHT22;65894;53.206;-6.108;2023-03-01T05:58:21;20.85;53.30
76956;DHT22;65894;53.206;-6.108;2023-03-01T06:00:48;20.88;53.26
76956;DHT22;65894;53.206;-6.108;2023-03-01T06:03:16;20.87;53.23
76956;DHT22;65894;53.206;-6.108;2023-03-01T06:05:42;20.85;53.19
76956;DHT22;65894;53.206;-6.108;2023-03-01T06:08:09;20.84;53.26
76956;DHT22;65894;53.206;-6.108;2023-03-01T06:10:35;20.88;53.21
76956;DHT22;65894;53.206;-6.108;2023-03-01T06:13:00;20.87;53.04
76956;DHT22;65894;53.206;-6.108;2023-03-01T06:15:26;20.85;53.06
76956;DHT22;65894;53.206;-6.108;2023-03-01T06:17:53;20.90;53.14
76956;DHT22;65894;53.206;-6.108;2023-03-01T06:20:23;20.87;53.26
76956;DHT22;65894;53.206;-6.108;2023-03-01T06:22:49;20.87;53.23
76956;DHT22;65894;53.206;-6.108;2023-03-01T06:25:17;20.88;53.06
76956;DHT22;65894;53.206;-6.108;2023-03-01T06:27:43;20.88;53.20
76956;DHT22;65894;53.206;-6.108;2023-03-01T06:30:11;20.88;53.12
76956;DHT22;65894;53.206;-6.108;2023-03-01T06:32:38;20.95;53.08
76956;DHT22;65894;53.206;-6.108;2023-03-01T06:35:07;20.94;53.19
76956;DHT22;65894;53.206;-6.108;2023-03-01T06:37:33;20.95;53.45
76956;DHT22;65894;53.206;-6.108;2023-03-01T06:40:01;20.97;53.64
76956;DHT22;65894;53.206;-6.108;2023-03-01T06:42:32;21.01;58.89
76956;DHT22;65894;53.206;-6.108;2023-03-01T06:44:57;21.04;57.69
76956;DHT22;65894;53.206;-6.108;2023-03-01T06:47:23;21.11;58.81
76956;DHT22;65894;53.206;-6.108;2023-03-01T06:49:48;21.14;58.50
76956;DHT22;65894;53.206;-6.108;2023-03-01T06:52:14;21.12;58.27
76956;DHT22;65894;53.206;-6.108;2023-03-01T06:54:39;21.08;57.88
76956;DHT22;65894;53.206;-6.108;2023-03-01T06:57:05;21.11;58.48
76956;DHT22;65894;53.206;-6.108;2023-03-01T06:59:30;21.09;58.36
76956;DHT22;65894;53.206;-6.108;2023-03-01T07:01:56;21.11;57.97
76956;DHT22;65894;53.206;-6.108;2023-03-01T07:04:22;21.11;57.89
76956;DHT22;65894;53.206;-6.108;2023-03-01T07:06:47;21.12;57.97
76956;DHT22;65894;53.206;-6.108;2023-03-01T07:09:19;21.11;57.94
76956;DHT22;65894;53.206;-6.108;2023-03-01T07:11:47;21.09;57.64
76956;DHT22;65894;53.206;-6.108;2023-03-01T07:14:13;21.11;57.53
76956;DHT22;65894;53.206;-6.108;2023-03-01T07:16:38;21.12;57.41
76956;DHT22;65894;53.206;-6.108;2023-03-01T07:19:04;21.11;57.29
76956;DHT22;65894;53.206;-6.108;2023-03-01T07:21:30;21.12;56.92
76956;DHT22;65894;53.206;-6.108;2023-03-01T07:23:56;21.11;56.93
76956;DHT22;65894;53.206;-6.108;2023-03-01T07:26:21;21.12;56.93
76956;DHT22;65894;53.206;-6.108;2023-03-01T07:28:47;21.09;56.98
76956;DHT22;65894;53.206;-6.108;2023-03-01T07:31:12;21.09;56.50
76956;DHT22;65894;53.206;-6.108;2023-03-01T07:33:38;21.08;56.47
76956;DHT22;65894;53.206;-6.108;2023-03-01T07:36:04;21.11;56.21
76956;DHT22;65894;53.206;-6.108;2023-03-01T07:38:30;21.08;56.13
76956;DHT22;65894;53.206;-6.108;2023-03-01T07:41:00;21.08;56.01
76956;DHT22;65894;53.206;-6.108;2023-03-01T07:43:32;21.07;56.01
76956;DHT22;65894;53.206;-6.108;2023-03-01T07:45:59;21.05;55.74
76956;DHT22;65894;53.206;-6.108;2023-03-01T07:48:25;21.05;55.53
76956;DHT22;65894;53.206;-6.108;2023-03-01T07:50:51;21.05;55.27
76956;DHT22;65894;53.206;-6.108;2023-03-01T07:53:16;21.02;55.21
76956;DHT22;65894;53.206;-6.108;2023-03-01T07:55:42;21.05;55.00
76956;DHT22;65894;53.206;-6.108;2023-03-01T07:58:07;21.04;54.95
76956;DHT22;65894;53.206;-6.108;2023-03-01T08:00:33;21.04;54.79
76956;DHT22;65894;53.206;-6.108;2023-03-01T08:03:00;21.05;54.77
76956;DHT22;65894;53.206;-6.108;2023-03-01T08:05:26;21.02;54.71
76956;DHT22;65894;53.206;-6.108;2023-03-01T08:07:52;21.07;54.76
76956;DHT22;65894;53.206;-6.108;2023-03-01T08:10:18;21.02;54.75
76956;DHT22;65894;53.206;-6.108;2023-03-01T08:12:44;21.02;54.52
76956;DHT22;65894;53.206;-6.108;2023-03-01T08:15:10;21.04;54.60
76956;DHT22;65894;53.206;-6.108;2023-03-01T08:17:35;21.02;54.61
76956;DHT22;65894;53.206;-6.108;2023-03-01T08:20:01;21.04;54.62
76956;DHT22;65894;53.206;-6.108;2023-03-01T08:22:28;21.05;54.58
76956;DHT22;65894;53.206;-6.108;2023-03-01T08:24:54;21.01;54.52
76956;DHT22;65894;53.206;-6.108;2023-03-01T08:27:21;21.01;54.50
76956;DHT22;65894;53.206;-6.108;2023-03-01T08:29:47;21.01;54.47
76956;DHT22;65894;53.206;-6.108;2023-03-01T08:32:12;21.01;54.44
76956;DHT22;65894;53.206;-6.108;2023-03-01T08:34:37;20.98;54.46
76956;DHT22;65894;53.206;-6.108;2023-03-01T08:37:03;21.01;54.35
76956;DHT22;65894;53.206;-6.108;2023-03-01T08:39:29;20.99;54.36
76956;DHT22;65894;53.206;-6.108;2023-03-01T08:41:54;20.98;54.40
76956;DHT22;65894;53.206;-6.108;2023-03-01T08:44:20;20.98;54.43
76956;DHT22;65894;53.206;-6.108;2023-03-01T08:46:49;20.99;54.25
76956;DHT22;65894;53.206;-6.108;2023-03-01T08:49:18;20.98;54.24
76956;DHT22;65894;53.206;-6.108;2023-03-01T08:51:44;20.98;54.17
76956;DHT22;65894;53.206;-6.108;2023-03-01T08:54:13;20.98;54.29
76956;DHT22;65894;53.206;-6.108;2023-03-01T08:56:40;20.99;54.14
76956;DHT22;65894;53.206;-6.108;2023-03-01T08:59:06;20.98;54.15
76956;DHT22;65894;53.206;-6.108;2023-03-01T09:01:32;20.99;54.15
76956;DHT22;65894;53.206;-6.108;2023-03-01T09:03:57;20.97;54.20
76956;DHT22;65894;53.206;-6.108;2023-03-01T09:06:23;20.97;54.04
76956;DHT22;65894;53.206;-6.108;2023-03-01T09:08:49;20.95;54.11
76956;DHT22;65894;53.206;-6.108;2023-03-01T09:11:17;20.95;54.10
76956;DHT22;65894;53.206;-6.108;2023-03-01T09:13:44;20.98;54.07
76956;DHT22;65894;53.206;-6.108;2023-03-01T09:16:11;20.98;53.97
76956;DHT22;65894;53.206;-6.108;2023-03-01T09:18:37;20.99;54.01
76956;DHT22;65894;53.206;-6.108;2023-03-01T09:23:42;20.95;53.84
76956;DHT22;65894;53.206;-6.108;2023-03-01T09:26:08;20.95;53.32
76956;DHT22;65894;53.206;-6.108;2023-03-01T09:28:38;20.95;53.64
76956;DHT22;65894;53.206;-6.108;2023-03-01T09:31:04;20.91;53.39
76956;DHT22;65894;53.206;-6.108;2023-03-01T09:33:31;20.95;53.26
76956;DHT22;65894;53.206;-6.108;2023-03-01T09:36:04;20.97;53.36
76956;DHT22;65894;53.206;-6.108;2023-03-01T09:38:31;20.95;53.34
76956;DHT22;65894;53.206;-6.108;2023-03-01T09:40:56;20.95;53.52
76956;DHT22;65894;53.206;-6.108;2023-03-01T09:45:53;20.99;53.80
76956;DHT22;65894;53.206;-6.108;2023-03-01T09:48:23;21.01;53.92
76956;DHT22;65894;53.206;-6.108;2023-03-01T09:50:50;20.95;53.90
76956;DHT22;65894;53.206;-6.108;2023-03-01T09:53:18;21.01;53.90
76956;DHT22;65894;53.206;-6.108;2023-03-01T09:55:45;20.99;53.84
76956;DHT22;65894;53.206;-6.108;2023-03-01T09:58:47;20.99;53.71
76956;DHT22;65894;53.206;-6.108;2023-03-01T10:01:26;20.99;53.64
76956;DHT22;65894;53.206;-6.108;2023-03-01T10:06:38;20.98;53.75
76956;DHT22;65894;53.206;-6.108;2023-03-01T10:09:14;20.99;53.55
76956;DHT22;65894;53.206;-6.108;2023-03-01T10:11:49;20.99;53.45
76956;DHT22;65894;53.206;-6.108;2023-03-01T10:14:39;21.01;53.62
76956;DHT22;65894;53.206;-6.108;2023-03-01T10:17:27;20.98;53.56
76956;DHT22;65894;53.206;-6.108;2023-03-01T10:20:16;20.97;53.73
76956;DHT22;65894;53.206;-6.108;2023-03-01T10:22:43;20.99;53.66
76956;DHT22;65894;53.206;-6.108;2023-03-01T10:25:14;21.02;53.43
76956;DHT22;65894;53.206;-6.108;2023-03-01T10:28:00;20.99;53.47
76956;DHT22;65894;53.206;-6.108;2023-03-01T10:30:35;20.99;53.64
76956;DHT22;65894;53.206;-6.108;2023-03-01T10:33:13;21.01;53.62
76956;DHT22;65894;53.206;-6.108;2023-03-01T10:35:40;20.99;53.57
76956;DHT22;65894;53.206;-6.108;2023-03-01T10:38:13;21.02;53.20
76956;DHT22;65894;53.206;-6.108;2023-03-01T10:40:57;20.99;53.60
76956;DHT22;65894;53.206;-6.108;2023-03-01T10:43:24;20.98;53.61
76956;DHT22;65894;53.206;-6.108;2023-03-01T10:45:51;21.01;53.64
76956;DHT22;65894;53.206;-6.108;2023-03-01T10:48:22;20.99;53.24
76956;DHT22;65894;53.206;-6.108;2023-03-01T10:53:36;21.02;53.47
76956;DHT22;65894;53.206;-6.108;2023-03-01T10:58:34;21.01;53.61
76956;DHT22;65894;53.206;-6.108;2023-03-01T11:03:39;21.01;53.50
76956;DHT22;65894;53.206;-6.108;2023-03-01T11:08:44;21.08;53.31
76956;DHT22;65894;53.206;-6.108;2023-03-01T11:11:19;21.18;53.19
76956;DHT22;65894;53.206;-6.108;2023-03-01T11:13:59;21.07;53.41
76956;DHT22;65894;53.206;-6.108;2023-03-01T11:19:35;21.01;53.86
76956;DHT22;65894;53.206;-6.108;2023-03-01T11:22:03;21.02;53.94
76956;DHT22;65894;53.206;-6.108;2023-03-01T11:27:29;21.05;53.58
76956;DHT22;65894;53.206;-6.108;2023-03-01T11:30:24;21.04;53.38
76956;DHT22;65894;53.206;-6.108;2023-03-01T11:35:43;21.01;54.47
76956;DHT22;65894;53.206;-6.108;2023-03-01T11:38:21;21.07;54.37
76956;DHT22;65894;53.206;-6.108;2023-03-01T11:44:03;21.11;54.49
76956;DHT22;65894;53.206;-6.108;2023-03-01T12:39:51;21.14;54.04
76956;DHT22;65894;53.206;-6.108;2023-03-01T12:50:39;21.22;53.94
76956;DHT22;65894;53.206;-6.108;2023-03-01T12:53:20;21.22;53.93
76956;DHT22;65894;53.206;-6.108;2023-03-01T12:55:47;21.12;54.10
76956;DHT22;65894;53.206;-6.108;2023-03-01T13:01:16;20.97;53.60
76956;DHT22;65894;53.206;-6.108;2023-03-01T13:03:58;21.02;53.24
76956;DHT22;65894;53.206;-6.108;2023-03-01T13:06:32;21.05;52.89
76956;DHT22;65894;53.206;-6.108;2023-03-01T13:11:42;21.08;52.91
76956;DHT22;65894;53.206;-6.108;2023-03-01T13:14:35;21.09;53.10
76956;DHT22;65894;53.206;-6.108;2023-03-01T13:17:01;21.09;53.17
76956;DHT22;65894;53.206;-6.108;2023-03-01T13:19:28;21.11;53.28
76956;DHT22;65894;53.206;-6.108;2023-03-01T13:21:58;21.08;53.37
76956;DHT22;65894;53.206;-6.108;2023-03-01T13:24:40;21.08;53.39
76956;DHT22;65894;53.206;-6.108;2023-03-01T13:30:01;21.08;52.87
76956;DHT22;65894;53.206;-6.108;2023-03-01T13:32:35;21.05;52.99
76956;DHT22;65894;53.206;-6.108;2023-03-01T13:37:40;21.09;53.07
76956;DHT22;65894;53.206;-6.108;2023-03-01T13:42:53;21.08;52.97
76956;DHT22;65894;53.206;-6.108;2023-03-01T13:45:39;21.07;52.85
76956;DHT22;65894;53.206;-6.108;2023-03-01T13:48:11;21.07;52.79
76956;DHT22;65894;53.206;-6.108;2023-03-01T13:50:54;21.05;52.77
76956;DHT22;65894;53.206;-6.108;2023-03-01T13:53:25;21.07;52.87
76956;DHT22;65894;53.206;-6.108;2023-03-01T13:55:55;21.07;52.89
76956;DHT22;65894;53.206;-6.108;2023-03-01T13:58:28;21.07;52.82
76956;DHT22;65894;53.206;-6.108;2023-03-01T14:03:28;21.05;52.60
76956;DHT22;65894;53.206;-6.108;2023-03-01T14:06:08;21.04;52.70
76956;DHT22;65894;53.206;-6.108;2023-03-01T14:08:36;21.02;52.97
76956;DHT22;65894;53.206;-6.108;2023-03-01T14:11:33;21.05;53.09
76956;DHT22;65894;53.206;-6.108;2023-03-01T14:19:47;20.92;52.91
76956;DHT22;65894;53.206;-6.108;2023-03-01T14:22:26;20.97;53.01
76956;DHT22;65894;53.206;-6.108;2023-03-01T14:25:00;21.01;52.54
76956;DHT22;65894;53.206;-6.108;2023-03-01T14:27:30;20.99;52.71
76956;DHT22;65894;53.206;-6.108;2023-03-01T14:30:03;21.01;53.02
76956;DHT22;65894;53.206;-6.108;2023-03-01T14:32:35;21.01;52.58
76956;DHT22;65894;53.206;-6.108;2023-03-01T14:35:01;20.99;52.63
76956;DHT22;65894;53.206;-6.108;2023-03-01T14:37:27;21.01;52.70
76956;DHT22;65894;53.206;-6.108;2023-03-01T14:39:54;20.99;52.64
76956;DHT22;65894;53.206;-6.108;2023-03-01T14:42:22;20.99;52.44
76956;DHT22;65894;53.206;-6.108;2023-03-01T14:44:51;21.02;52.68
76956;DHT22;65894;53.206;-6.108;2023-03-01T14:47:32;21.02;52.51
76956;DHT22;65894;53.206;-6.108;2023-03-01T14:52:46;20.99;52.74
76956;DHT22;65894;53.206;-6.108;2023-03-01T14:55:19;20.99;52.78
76956;DHT22;65894;53.206;-6.108;2023-03-01T14:57:49;20.97;52.78
76956;DHT22;65894;53.206;-6.108;2023-03-01T15:00:22;20.97;52.52
76956;DHT22;65894;53.206;-6.108;2023-03-01T15:02:50;20.94;52.72
76956;DHT22;65894;53.206;-6.108;2023-03-01T15:05:32;20.92;52.74
76956;DHT22;65894;53.206;-6.108;2023-03-01T15:08:00;20.95;52.52
76956;DHT22;65894;53.206;-6.108;2023-03-01T15:10:34;20.97;52.47
76956;DHT22;65894;53.206;-6.108;2023-03-01T15:13:14;20.99;52.69
76956;DHT22;65894;53.206;-6.108;2023-03-01T15:15:45;20.95;52.61
76956;DHT22;65894;53.206;-6.108;2023-03-01T15:18:19;20.94;52.49
76956;DHT22;65894;53.206;-6.108;2023-03-01T15:20:47;20.95;52.76
76956;DHT22;65894;53.206;-6.108;2023-03-01T15:23:24;20.95;52.76
76956;DHT22;65894;53.206;-6.108;2023-03-01T15:25:52;20.95;52.50
76956;DHT22;65894;53.206;-6.108;2023-03-01T15:28:38;20.97;52.68
76956;DHT22;65894;53.206;-6.108;2023-03-01T15:31:31;20.97;52.58
76956;DHT22;65894;53.206;-6.108;2023-03-01T15:34:24;20.94;52.52
76956;DHT22;65894;53.206;-6.108;2023-03-01T15:36:52;20.92;52.69
76956;DHT22;65894;53.206;-6.108;2023-03-01T15:39:37;20.92;52.57
76956;DHT22;65894;53.206;-6.108;2023-03-01T15:42:05;20.94;52.73
76956;DHT22;65894;53.206;-6.108;2023-03-01T15:44:34;20.95;52.52
76956;DHT22;65894;53.206;-6.108;2023-03-01T15:47:01;20.94;52.65
76956;DHT22;65894;53.206;-6.108;2023-03-01T15:49:41;20.92;52.53
76956;DHT22;65894;53.206;-6.108;2023-03-01T15:54:47;20.91;52.72
76956;DHT22;65894;53.206;-6.108;2023-03-01T15:57:13;20.91;52.76
76956;DHT22;65894;53.206;-6.108;2023-03-01T15:59:41;20.92;52.60
76956;DHT22;65894;53.206;-6.108;2023-03-01T16:02:11;20.90;52.81
76956;DHT22;65894;53.206;-6.108;2023-03-01T16:04:38;20.88;52.68
76956;DHT22;65894;53.206;-6.108;2023-03-01T16:07:05;20.91;52.95
76956;DHT22;65894;53.206;-6.108;2023-03-01T16:09:30;20.90;52.81
76956;DHT22;65894;53.206;-6.108;2023-03-01T16:11:56;20.90;52.76
76956;DHT22;65894;53.206;-6.108;2023-03-01T16:14:22;20.90;52.80
76956;DHT22;65894;53.206;-6.108;2023-03-01T16:16:48;20.90;52.92
76956;DHT22;65894;53.206;-6.108;2023-03-01T16:19:14;20.90;52.70
76956;DHT22;65894;53.206;-6.108;2023-03-01T16:21:41;20.83;52.20
76956;DHT22;65894;53.206;-6.108;2023-03-01T16:24:08;20.84;52.82
76956;DHT22;65894;53.206;-6.108;2023-03-01T16:26:34;20.84;52.71
76956;DHT22;65894;53.206;-6.108;2023-03-01T16:29:00;20.87;52.69
76956;DHT22;65894;53.206;-6.108;2023-03-01T16:31:25;20.88;52.47
76956;DHT22;65894;53.206;-6.108;2023-03-01T16:33:55;20.85;52.69
76956;DHT22;65894;53.206;-6.108;2023-03-01T16:36:21;20.85;52.42
76956;DHT22;65894;53.206;-6.108;2023-03-01T16:38:50;20.87;52.58
76956;DHT22;65894;53.206;-6.108;2023-03-01T16:41:18;20.87;52.75
76956;DHT22;65894;53.206;-6.108;2023-03-01T16:43:44;20.84;52.75
76956;DHT22;65894;53.206;-6.108;2023-03-01T16:46:29;20.85;52.54
76956;DHT22;65894;53.206;-6.108;2023-03-01T16:48:56;20.87;52.70
76956;DHT22;65894;53.206;-6.108;2023-03-01T16:51:22;20.84;52.65
76956;DHT22;65894;53.206;-6.108;2023-03-01T16:53:49;20.87;52.46
76956;DHT22;65894;53.206;-6.108;2023-03-01T16:56:16;20.87;52.52
76956;DHT22;65894;53.206;-6.108;2023-03-01T16:58:42;20.85;52.67
76956;DHT22;65894;53.206;-6.108;2023-03-01T17:01:16;20.83;52.48
76956;DHT22;65894;53.206;-6.108;2023-03-01T17:03:43;20.83;52.50
76956;DHT22;65894;53.206;-6.108;2023-03-01T17:06:11;20.85;52.47
76956;DHT22;65894;53.206;-6.108;2023-03-01T17:08:37;20.84;52.63
76956;DHT22;65894;53.206;-6.108;2023-03-01T17:11:15;20.87;52.50
76956;DHT22;65894;53.206;-6.108;2023-03-01T17:13:41;20.84;52.72
76956;DHT22;65894;53.206;-6.108;2023-03-01T17:16:09;20.87;52.74
76956;DHT22;65894;53.206;-6.108;2023-03-01T17:18:36;20.83;52.39
76956;DHT22;65894;53.206;-6.108;2023-03-01T17:21:02;20.83;52.70
76956;DHT22;65894;53.206;-6.108;2023-03-01T17:23:30;20.83;52.55
76956;DHT22;65894;53.206;-6.108;2023-03-01T17:25:56;20.81;52.77
76956;DHT22;65894;53.206;-6.108;2023-03-01T17:28:24;20.81;52.44
76956;DHT22;65894;53.206;-6.108;2023-03-01T17:30:50;20.81;52.40
76956;DHT22;65894;53.206;-6.108;2023-03-01T17:33:17;20.78;52.73
76956;DHT22;65894;53.206;-6.108;2023-03-01T17:35:43;20.81;52.61